Time;durP1;ratioP1;P1;durP2;ratioP2;P2;SDS_P1;SDS_P2;PMS_P1;PMS_P2;Temp;Humidity;BMP_temperature;BMP_pressure;BME280_temperature;BME280_humidity;BME280_pressure;Samples;Min_cycle;Max_cycle;Signal;HPM_P1;HPM_P2
2023/04/29 00:00:05;;;;;;;7.40;2.15;;;;;;;30.76;38.79;99994.88;7392822;19;20022;-79
2023/04/29 00:02:37;;;;;;;12.30;2.03;;;;;;;30.61;38.71;99991.03;7392956;19;20485;-79
2023/04/29 00:05:04;;;;;;;2.10;1.10;;;;;;;30.62;38.53;99991.78;7392645;19;20029;-79
2023/04/29 00:07:33;;;;;;;4.07;1.48;;;;;;;30.68;38.28;99995.06;7392261;19;20014;-79
2023/04/29 00:10:00;;;;;;;1.05;0.95;;;;;;;30.62;38.12;99991.78;7394227;19;20488;-79
2023/04/29 00:12:27;;;;;;;5.07;1.58;;;;;;;30.70;37.74;100003.84;7392735;19;20015;-79
2023/04/29 00:14:53;;;;;;;3.33;1.83;;;;;;;30.71;37.38;99999.59;7392220;19;20026;-78
2023/04/29 00:17:19;;;;;;;8.73;2.85;;;;;;;29.94;38.29;100008.50;7392246;19;20027;-79
2023/04/29 00:19:45;;;;;;;5.88;2.50;;;;;;;30.17;38.03;100010.09;7392303;19;20019;-79
2023/04/29 00:22:11;;;;;;;4.68;1.88;;;;;;;30.10;37.85;100005.28;7391571;19;20044;-79
2023/04/29 00:24:37;;;;;;;4.25;1.58;;;;;;;29.62;38.22;100014.72;7390781;19;20381;-79
2023/04/29 00:27:05;;;;;;;5.13;2.38;;;;;;;29.58;38.64;100013.66;7393388;19;20073;-79
2023/04/29 00:29:31;;;;;;;6.07;1.08;;;;;;;29.51;38.40;100015.31;7391995;19;20128;-79
2023/04/29 00:31:58;;;;;;;4.25;2.05;;;;;;;29.03;39.15;100015.25;7394656;19;20018;-79
2023/04/29 00:34:24;;;;;;;10.40;2.50;;;;;;;29.00;38.81;100015.72;7391770;19;20006;-78
2023/04/29 00:36:50;;;;;;;2.83;2.22;;;;;;;29.49;38.06;100020.16;7392927;19;20023;-78
2023/04/29 00:39:17;;;;;;;1.30;1.20;;;;;;;29.38;38.19;100012.91;7390506;19;20018;-79
2023/04/29 00:41:43;;;;;;;3.15;1.13;;;;;;;29.51;37.47;100015.31;7389239;19;20010;-79
2023/04/29 00:44:10;;;;;;;8.55;1.75;;;;;;;29.64;37.27;100016.97;7391804;19;20026;-79
2023/04/29 00:46:36;;;;;;;1.30;1.20;;;;;;;29.57;36.79;100015.75;7394157;19;20040;-79
2023/04/29 00:49:03;;;;;;;2.83;1.55;;;;;;;29.51;36.99;100015.31;7392235;19;20141;-78
2023/04/29 00:51:29;;;;;;;5.35;1.27;;;;;;;29.87;36.58;100015.16;7392024;19;20481;-79
2023/04/29 00:53:56;;;;;;;1.52;1.42;;;;;;;29.95;36.26;100012.84;7389791;19;20037;-79
2023/04/29 00:56:22;;;;;;;4.30;1.30;;;;;;;30.08;36.24;100010.88;7389469;19;20022;-78
2023/04/29 00:58:50;;;;;;;3.25;0.88;;;;;;;30.24;35.84;100014.91;7388305;19;20021;-79
2023/04/29 01:01:18;;;;;;;5.95;1.55;;;;;;;30.30;35.82;100015.34;7389571;19;20022;-78
2023/04/29 01:03:44;;;;;;;1.38;1.02;;;;;;;30.43;35.58;100009.13;7390084;19;20141;-79
2023/04/29 01:06:17;;;;;;;0.95;0.93;;;;;;;30.53;35.46;100004.09;7389361;19;20017;-79
2023/04/29 01:09:21;;;;;;;2.17;1.50;;;;;;;30.72;35.47;100015.47;7390057;19;20017;-79
2023/04/29 01:12:12;;;;;;;3.25;1.23;;;;;;;30.98;34.76;100010.81;7389029;19;20010;-78
2023/04/29 01:14:43;;;;;;;1.25;1.17;;;;;;;30.98;34.82;100023.09;7389623;19;20010;-79
2023/04/29 01:17:13;;;;;;;3.83;1.77;;;;;;;30.87;34.80;100015.13;7391608;19;20018;-79
2023/04/29 01:19:53;;;;;;;2.13;1.70;;;;;;;30.82;35.01;100021.19;7389057;19;20498;-78
2023/04/29 01:22:21;;;;;;;2.13;1.77;;;;;;;30.68;34.58;100020.97;7388223;19;20082;-79
2023/04/29 01:24:48;;;;;;;3.42;2.42;;;;;;;30.38;34.79;100015.94;7389906;19;20492;-79
2023/04/29 01:27:15;;;;;;;4.78;1.98;;;;;;;30.32;34.10;100016.25;7389353;19;20074;-79
2023/04/29 01:30:14;;;;;;;1.50;1.40;;;;;;;30.44;33.94;100025.75;7388768;19;20030;-79
2023/04/29 01:32:52;;;;;;;2.25;1.38;;;;;;;30.25;34.04;100027.91;7392119;19;20014;-79
2023/04/29 01:35:27;;;;;;;1.38;0.85;;;;;;;30.11;33.85;100024.00;7388674;19;20421;-79
2023/04/29 01:38:10;;;;;;;2.75;1.63;;;;;;;29.96;33.75;100023.00;7389125;19;20434;-79
2023/04/29 01:40:44;;;;;;;3.55;1.85;;;;;;;29.41;34.23;100022.41;7386401;19;20014;-79
2023/04/29 01:43:19;;;;;;;2.97;1.63;;;;;;;29.16;34.05;100028.44;7389775;19;20015;-79
2023/04/29 01:45:47;;;;;;;12.45;1.30;;;;;;;29.16;34.17;100031.31;7390432;19;20022;-79
2023/04/29 01:48:16;;;;;;;1.33;1.08;;;;;;;29.11;34.07;100023.69;7389043;19;20015;-79
2023/04/29 01:50:43;;;;;;;4.13;1.73;;;;;;;29.39;33.80;100025.13;7387478;19;20018;-79
2023/04/29 01:53:14;;;;;;;1.65;1.15;;;;;;;29.41;33.82;100034.63;7390868;19;20014;-79
2023/04/29 01:55:42;;;;;;;1.50;1.27;;;;;;;29.37;33.34;100028.59;7389280;19;20078;-78
2023/04/29 01:58:41;;;;;;;4.35;1.25;;;;;;;29.31;33.52;100024.50;7388421;19;20015;-79
2023/04/29 02:01:16;;;;;;;4.40;1.85;;;;;;;29.40;33.92;100032.38;7388646;19;20102;-78
2023/04/29 02:03:42;;;;;;;1.30;1.02;;;;;;;29.49;33.80;100034.50;7391520;19;20010;-79
2023/04/29 02:06:10;;;;;;;1.42;1.33;;;;;;;29.18;33.85;100034.31;7388618;19;20369;-79
2023/04/29 02:08:37;;;;;;;4.40;1.33;;;;;;;29.15;33.95;100035.50;7388539;19;20018;-78
2023/04/29 02:11:03;;;;;;;3.05;1.75;;;;;;;29.30;33.73;100035.25;7388754;19;20007;-79
2023/04/29 02:13:35;;;;;;;1.50;1.08;;;;;;;29.60;33.69;100031.03;7398086;19;20022;-78
2023/04/29 02:16:10;;;;;;;0.95;0.77;;;;;;;29.65;33.42;100030.72;7395411;19;20007;-78
2023/04/29 02:18:39;;;;;;;4.65;1.55;;;;;;;29.73;33.41;100031.31;7395452;19;20014;-78
2023/04/29 02:21:06;;;;;;;2.33;1.33;;;;;;;29.75;33.47;100034.38;7392990;19;20014;-78
2023/04/29 02:23:35;;;;;;;3.65;0.90;;;;;;;29.73;33.18;100025.59;7395152;19;20025;-79
2023/04/29 02:26:04;;;;;;;1.25;1.05;;;;;;;29.84;33.09;100029.97;7393462;19;20480;-78
2023/04/29 02:28:30;;;;;;;2.03;1.33;;;;;;;29.93;32.94;100032.81;7394582;19;20023;-79
2023/04/29 02:30:57;;;;;;;3.35;1.10;;;;;;;30.01;32.92;100034.78;7393161;19;20082;-78
2023/04/29 02:33:23;;;;;;;8.15;2.08;;;;;;;30.08;32.91;100026.00;7396874;19;20010;-79
2023/04/29 02:35:49;;;;;;;0.93;0.93;;;;;;;29.96;33.03;100027.97;7394831;19;20265;-79
2023/04/29 02:38:16;;;;;;;1.55;1.45;;;;;;;29.96;33.07;100031.63;7394841;19;20018;-79
2023/04/29 02:40:43;;;;;;;3.70;1.67;;;;;;;30.07;32.75;100030.22;7392164;19;20410;-78
2023/04/29 02:43:10;;;;;;;1.42;1.20;;;;;;;30.13;32.86;100029.91;7393847;19;20010;-79
2023/04/29 02:45:37;;;;;;;3.05;0.85;;;;;;;30.08;33.17;100025.25;7394099;19;20094;-78
2023/04/29 02:48:07;;;;;;;12.35;1.63;;;;;;;30.01;33.30;100026.16;7392306;19;20020;-78
2023/04/29 02:50:33;;;;;;;1.63;1.33;;;;;;;29.93;33.54;100027.06;7390008;19;20025;-79
2023/04/29 02:53:00;;;;;;;3.33;1.40;;;;;;;30.01;33.28;100031.91;7394168;19;20365;-79
2023/04/29 02:55:27;;;;;;;2.13;1.70;;;;;;;28.42;34.86;100046.25;7394483;19;20083;-78
2023/04/29 02:57:55;;;;;;;1.38;0.85;;;;;;;29.41;33.49;100037.50;7393366;19;20035;-78
2023/04/29 03:00:22;;;;;;;4.32;1.63;;;;;;;29.71;33.52;100042.66;7393217;19;20027;-78
2023/04/29 03:02:48;;;;;;;4.32;0.90;;;;;;;29.91;33.44;100031.91;7395478;19;20006;-79
2023/04/29 03:05:15;;;;;;;3.90;1.95;;;;;;;30.36;32.59;100033.06;7394949;19;20014;-79
2023/04/29 03:07:41;;;;;;;2.03;1.15;;;;;;;30.65;32.41;100045.16;7395406;19;20082;-78
2023/04/29 03:10:07;;;;;;;1.23;0.77;;;;;;;30.64;32.60;100046.56;7395739;19;20022;-79
2023/04/29 03:12:36;;;;;;;1.10;0.98;;;;;;;30.68;32.26;100047.59;7395409;19;20018;-78
2023/04/29 03:15:02;;;;;;;4.65;1.35;;;;;;;30.77;32.57;100048.16;7394815;19;20021;-79
2023/04/29 03:17:29;;;;;;;1.98;1.27;;;;;;;30.86;32.26;100044.47;7394020;19;20361;-78
2023/04/29 03:19:55;;;;;;;4.82;1.23;;;;;;;30.58;32.59;100040.38;7392972;19;20011;-79
2023/04/29 03:22:21;;;;;;;4.32;1.90;;;;;;;30.63;32.44;100039.28;7390885;19;20379;-79
2023/04/29 03:24:47;;;;;;;2.03;1.65;;;;;;;30.53;32.51;100042.22;7394626;19;20010;-79
2023/04/29 03:27:14;;;;;;;2.60;1.00;;;;;;;30.57;32.02;100041.75;7394063;19;20407;-79
2023/04/29 03:29:40;;;;;;;0.60;0.60;;;;;;;30.03;33.10;100040.66;7393463;19;20082;-78
2023/04/29 03:32:06;;;;;;;1.90;1.45;;;;;;;30.12;32.70;100045.66;7395676;19;20022;-79
2023/04/29 03:34:33;;;;;;;1.08;0.95;;;;;;;30.32;32.75;100044.25;7398861;19;20591;-78
2023/04/29 03:37:19;;;;;;;3.38;0.80;;;;;;;30.32;32.73;100050.00;7393671;19;20081;-78
2023/04/29 03:39:51;;;;;;;5.45;1.00;;;;;;;30.08;32.70;100059.72;7392642;19;20347;-79
2023/04/29 03:42:17;;;;;;;2.25;1.83;;;;;;;30.24;32.31;100055.88;7392225;19;20022;-78
2023/04/29 03:44:44;;;;;;;1.23;1.15;;;;;;;30.29;32.49;100051.94;7393500;19;20508;-79
2023/04/29 03:47:10;;;;;;;2.40;1.02;;;;;;;30.21;31.94;100053.50;7397815;19;20189;-79
2023/04/29 03:49:36;;;;;;;6.93;2.15;;;;;;;30.08;32.30;100063.34;7393308;19;20351;-78
2023/04/29 03:52:03;;;;;;;4.03;1.45;;;;;;;30.06;32.32;100056.69;7394245;19;20015;-78
2023/04/29 03:54:29;;;;;;;2.53;1.10;;;;;;;29.99;32.25;100055.50;7397747;19;20504;-79
2023/04/29 03:56:56;;;;;;;5.82;1.85;;;;;;;30.12;32.17;100057.91;7392579;19;20010;-78
2023/04/29 03:59:22;;;;;;;4.80;1.23;;;;;;;30.39;32.01;100051.94;7392359;19;20014;-78
2023/04/29 04:01:51;;;;;;;0.98;0.82;;;;;;;30.48;31.56;100054.03;7394118;19;20011;-79
2023/04/29 04:04:17;;;;;;;2.90;1.75;;;;;;;30.66;31.51;100056.09;7396807;19;20010;-78
2023/04/29 04:06:50;;;;;;;5.70;1.45;;;;;;;30.08;31.68;100059.72;7392528;19;20018;-78
2023/04/29 04:09:17;;;;;;;3.50;2.15;;;;;;;29.64;31.98;100063.66;7392290;19;20676;-79
2023/04/29 04:11:44;;;;;;;3.80;0.70;;;;;;;28.67;33.16;100066.16;7392667;19;20489;-78
2023/04/29 04:14:11;;;;;;;4.38;1.02;;;;;;;30.50;31.27;100060.69;7396685;19;20046;-79
2023/04/29 04:16:37;;;;;;;3.08;1.52;;;;;;;30.70;31.19;100056.38;7392939;19;20035;-78
2023/04/29 04:19:04;;;;;;;1.13;1.02;;;;;;;30.43;31.53;100055.13;7392319;19;20092;-78
2023/04/29 04:21:34;;;;;;;3.13;1.77;;;;;;;30.47;31.44;100061.16;7392289;19;20039;-78
2023/04/29 04:24:05;;;;;;;2.45;1.45;;;;;;;30.48;31.69;100068.41;7396002;19;20661;-78
2023/04/29 04:26:32;;;;;;;3.20;1.40;;;;;;;30.59;31.74;100070.63;7392874;19;20018;-78
2023/04/29 04:29:07;;;;;;;6.93;1.75;;;;;;;30.62;31.85;100063.66;7392045;19;21130;-78
2023/04/29 04:31:59;;;;;;;1.90;1.20;;;;;;;30.53;32.33;100068.09;7393270;19;20014;-78
2023/04/29 04:34:26;;;;;;;3.08;1.45;;;;;;;30.48;32.17;100074.91;7395479;19;20086;-78
2023/04/29 04:36:54;;;;;;;1.60;1.17;;;;;;;30.68;32.19;100076.34;7391561;19;20014;-78
2023/04/29 04:39:21;;;;;;;0.80;0.77;;;;;;;30.98;31.70;100072.00;7391669;19;20078;-79
2023/04/29 04:41:48;;;;;;;5.13;2.30;;;;;;;31.03;31.70;100073.78;7390924;19;20015;-79
2023/04/29 04:44:15;;;;;;;1.90;0.80;;;;;;;30.99;31.67;100070.59;7395353;19;20469;-79
2023/04/29 04:46:54;;;;;;;0.68;0.68;;;;;;;31.09;31.85;100061.94;7394966;19;20010;-79
2023/04/29 04:49:38;;;;;;;3.13;1.30;;;;;;;31.19;31.50;100066.25;7392498;19;20015;-78
2023/04/29 04:52:05;;;;;;;3.45;1.10;;;;;;;31.26;31.38;100071.06;7392062;19;20339;-79
2023/04/29 04:54:32;;;;;;;3.58;1.40;;;;;;;31.18;31.40;100076.28;7394170;19;20019;-79
2023/04/29 04:57:12;;;;;;;3.97;0.70;;;;;;;31.66;31.46;100075.19;7390160;19;20022;-79
2023/04/29 04:59:38;;;;;;;1.50;0.95;;;;;;;31.75;31.21;100080.13;7389719;19;20082;-79
2023/04/29 05:02:04;;;;;;;1.15;1.10;;;;;;;31.99;31.19;100075.97;7391912;19;20040;-78
2023/04/29 05:04:30;;;;;;;1.42;1.00;;;;;;;32.11;30.69;100076.78;7394671;19;20025;-79
2023/04/29 05:06:57;;;;;;;2.38;1.00;;;;;;;31.94;30.72;100079.94;7390665;19;20022;-79
2023/04/29 05:09:26;;;;;;;3.05;2.05;;;;;;;32.07;30.67;100082.28;7390497;19;20036;-80
2023/04/29 05:11:53;;;;;;;7.72;1.50;;;;;;;32.12;30.77;100093.44;7390233;19;20014;-80
2023/04/29 05:14:19;;;;;;;5.22;1.63;;;;;;;32.21;30.99;100102.59;7393515;19;20085;-80
2023/04/29 05:16:46;;;;;;;8.52;2.13;;;;;;;32.37;30.81;100098.66;7389669;19;20022;-80
2023/04/29 05:19:12;;;;;;;1.58;1.35;;;;;;;32.67;30.67;100097.72;7389524;19;20026;-80
2023/04/29 05:21:39;;;;;;;6.10;1.45;;;;;;;32.70;30.85;100096.44;7390085;19;20082;-80
2023/04/29 05:24:08;;;;;;;2.08;1.55;;;;;;;32.85;30.72;100093.06;7394160;19;20018;-80
2023/04/29 05:26:34;;;;;;;2.55;1.33;;;;;;;33.18;30.29;100089.34;7389978;19;20015;-80
2023/04/29 05:29:01;;;;;;;1.23;1.10;;;;;;;33.19;30.23;100093.72;7389127;19;20135;-79
2023/04/29 05:31:31;;;;;;;1.45;1.20;;;;;;;33.06;29.95;100097.25;7389866;19;20002;-79
2023/04/29 05:34:03;;;;;;;4.95;1.08;;;;;;;32.48;31.00;100091.41;7392463;19;20014;-80
2023/04/29 05:36:30;;;;;;;7.03;2.17;;;;;;;32.50;30.98;100095.19;7388778;19;20359;-79
2023/04/29 05:38:57;;;;;;;15.75;2.97;;;;;;;32.33;31.17;100107.03;7389157;19;20014;-79
2023/04/29 05:41:23;;;;;;;1.67;1.10;;;;;;;32.32;31.16;100102.63;7389966;19;20638;-79
2023/04/29 05:43:55;;;;;;;5.00;1.33;;;;;;;32.52;31.13;100101.09;7393359;19;20078;-79
2023/04/29 05:46:22;;;;;;;4.78;1.60;;;;;;;32.53;31.13;100099.69;7401730;19;20115;-79
2023/04/29 05:48:49;;;;;;;7.85;2.78;;;;;;;32.53;31.13;100102.56;7403375;19;20010;-79
2023/04/29 05:51:15;;;;;;;3.03;1.42;;;;;;;32.69;30.97;100105.75;7402186;19;20102;-80
2023/04/29 05:53:41;;;;;;;7.28;1.58;;;;;;;32.73;31.01;100106.75;7406909;19;20018;-79
2023/04/29 05:56:08;;;;;;;5.75;1.35;;;;;;;32.63;30.68;100106.13;7404129;19;20018;-80
2023/04/29 05:58:35;;;;;;;5.47;1.42;;;;;;;32.42;31.17;100102.53;7403249;19;20492;-79
2023/04/29 06:01:02;;;;;;;5.00;2.53;;;;;;;32.58;30.95;100113.00;7400938;19;20049;-79
2023/04/29 06:03:29;;;;;;;3.90;1.58;;;;;;;32.68;30.91;100110.75;7403102;19;20031;-81
2023/04/29 06:06:34;;;;;;;10.45;2.95;;;;;;;32.82;30.46;100113.78;7401425;19;20642;-80
2023/04/29 06:09:32;;;;;;;7.05;1.92;;;;;;;32.83;30.67;100110.25;7400393;19;20015;-81
2023/04/29 06:12:03;;;;;;;4.10;1.95;;;;;;;32.90;30.74;100120.81;7403244;19;20026;-81
2023/04/29 06:14:30;;;;;;;7.78;1.35;;;;;;;33.03;30.89;100115.81;7407501;19;20022;-81
2023/04/29 06:16:56;;;;;;;11.48;3.38;;;;;;;33.10;30.77;100114.81;7404551;19;20356;-81
2023/04/29 06:19:24;;;;;;;1.63;1.23;;;;;;;33.18;31.08;100115.31;7404206;19;20372;-80
2023/04/29 06:21:50;;;;;;;3.63;2.20;;;;;;;33.38;31.34;100122.31;7401298;19;20511;-81
2023/04/29 06:24:17;;;;;;;13.68;3.38;;;;;;;33.44;30.68;100116.91;7406259;19;20050;-81
2023/04/29 06:26:43;;;;;;;3.50;1.73;;;;;;;33.43;30.55;100124.06;7402803;19;20100;-80
2023/04/29 06:29:09;;;;;;;4.88;1.80;;;;;;;33.52;30.54;100123.97;7403220;19;20413;-80
2023/04/29 06:31:37;;;;;;;5.28;2.60;;;;;;;33.98;30.38;100119.41;7404323;19;20359;-79
2023/04/29 06:34:04;;;;;;;3.85;1.83;;;;;;;33.56;30.51;100121.31;7406096;19;20018;-80
2023/04/29 06:36:33;;;;;;;9.63;3.78;;;;;;;33.45;30.36;100121.28;7402034;19;20078;-80
2023/04/29 06:39:18;;;;;;;6.40;2.85;;;;;;;33.49;30.69;100122.28;7402788;19;20010;-80
2023/04/29 06:42:04;;;;;;;11.23;3.63;;;;;;;33.35;30.87;100129.34;7399915;19;20011;-80
2023/04/29 06:44:48;;;;;;;1.77;1.63;;;;;;;33.58;31.02;100135.09;7408449;19;20353;-80
2023/04/29 06:47:43;;;;;;;6.72;2.00;;;;;;;33.77;30.76;100139.81;7403247;19;20019;-80
2023/04/29 06:50:11;;;;;;;9.05;2.10;;;;;;;33.83;30.66;100140.19;7402689;19;20018;-80
2023/04/29 06:52:37;;;;;;;2.45;1.33;;;;;;;33.86;30.56;100136.78;7402352;19;20014;-80
2023/04/29 06:55:04;;;;;;;6.88;3.53;;;;;;;33.87;30.49;100144.09;7402368;19;20029;-81
2023/04/29 06:57:31;;;;;;;10.10;2.83;;;;;;;34.18;30.48;100144.47;7399707;19;20473;-79
2023/04/29 06:59:57;;;;;;;7.45;2.03;;;;;;;34.68;29.91;100142.94;7393652;19;20048;-80
2023/04/29 07:02:24;;;;;;;8.95;3.53;;;;;;;34.74;30.25;100146.22;7397274;19;20022;-80
2023/04/29 07:04:51;;;;;;;8.70;3.28;;;;;;;34.76;30.51;100149.22;7396657;19;20022;-79
2023/04/29 07:07:17;;;;;;;11.82;3.50;;;;;;;34.33;30.38;100149.69;7395626;19;20027;-79
2023/04/29 07:09:43;;;;;;;17.33;3.70;;;;;;;34.33;30.77;100146.03;7394141;19;20010;-79
2023/04/29 07:12:09;;;;;;;8.70;3.08;;;;;;;34.62;30.78;100151.31;7395170;19;20505;-80
2023/04/29 07:14:36;;;;;;;7.75;2.63;;;;;;;34.89;30.87;100148.50;7401100;19;20028;-81
2023/04/29 07:17:03;;;;;;;10.93;2.50;;;;;;;35.11;30.76;100143.19;7393989;19;20495;-81
2023/04/29 07:19:30;;;;;;;6.28;2.88;;;;;;;35.23;30.73;100141.69;7395333;19;20014;-80
2023/04/29 07:21:57;;;;;;;10.05;3.15;;;;;;;35.50;31.15;100150.38;7393800;19;20007;-79
2023/04/29 07:24:23;;;;;;;15.73;3.42;;;;;;;35.68;31.21;100151.31;7397727;19;20014;-80
2023/04/29 07:26:49;;;;;;;13.15;2.85;;;;;;;35.86;31.16;100144.97;7394053;19;20018;-79
2023/04/29 07:29:16;;;;;;;10.52;4.35;;;;;;;35.78;30.70;100151.84;7395535;19;20074;-79
2023/04/29 07:31:43;;;;;;;8.38;3.50;;;;;;;35.77;30.62;100150.34;7395197;19;20026;-79
2023/04/29 07:34:09;;;;;;;12.73;3.17;;;;;;;35.83;30.86;100164.41;7394594;19;20018;-80
2023/04/29 07:36:35;;;;;;;14.80;3.67;;;;;;;35.96;30.88;100165.78;7397367;19;20447;-80
2023/04/29 07:39:02;;;;;;;7.85;2.83;;;;;;;36.12;31.04;100166.59;7395678;19;20021;-80
2023/04/29 07:41:28;;;;;;;9.82;4.03;;;;;;;36.12;30.88;100160.81;7395872;19;20003;-80
2023/04/29 07:43:54;;;;;;;7.18;3.25;;;;;;;36.14;31.34;100163.81;7395654;19;20015;-79
2023/04/29 07:46:20;;;;;;;6.55;3.05;;;;;;;36.50;31.05;100162.72;7395889;19;20017;-80
2023/04/29 07:48:47;;;;;;;5.50;3.15;;;;;;;36.71;30.66;100155.75;7393585;19;20077;-80
2023/04/29 07:51:14;;;;;;;12.77;3.40;;;;;;;36.63;30.77;100155.34;7390700;19;20044;-79
2023/04/29 07:53:42;;;;;;;6.18;2.90;;;;;;;36.68;30.70;100163.59;7397270;19;20514;-79
2023/04/29 07:56:08;;;;;;;14.43;2.90;;;;;;;36.87;30.64;100171.75;7391306;19;20045;-79
2023/04/29 07:58:34;;;;;;;8.55;2.42;;;;;;;37.15;31.05;100158.56;7393624;19;20014;-79
2023/04/29 08:01:08;;;;;;;2.80;2.22;;;;;;;37.25;30.92;100167.72;7390081;19;20026;-79
2023/04/29 08:03:34;;;;;;;12.00;2.75;;;;;;;37.32;30.44;100173.84;7393164;19;20010;-80
2023/04/29 08:06:02;;;;;;;9.27;2.70;;;;;;;37.46;30.61;100168.69;7390496;19;20477;-79
2023/04/29 08:08:29;;;;;;;7.32;2.80;;;;;;;37.48;30.71;100180.41;7388808;19;20017;-79
2023/04/29 08:10:55;;;;;;;8.35;2.53;;;;;;;37.42;30.31;100174.31;7390277;19;20031;-78
2023/04/29 08:13:22;;;;;;;4.85;1.58;;;;;;;37.39;30.35;100175.63;7395651;19;20034;-80
2023/04/29 08:15:48;;;;;;;3.20;1.35;;;;;;;36.99;30.40;100178.16;7392330;19;20014;-78
2023/04/29 08:18:17;;;;;;;5.55;2.30;;;;;;;36.45;30.72;100175.53;7390782;19;20462;-79
2023/04/29 08:20:43;;;;;;;4.07;0.90;;;;;;;36.18;31.26;100181.41;7391584;19;20082;-80
2023/04/29 08:23:10;;;;;;;3.00;1.38;;;;;;;25.85;45.53;100196.31;7393389;19;20026;-80
2023/04/29 08:25:40;;;;;;;2.72;1.65;;;;;;;22.08;88.37;100206.94;7392071;19;20097;-79
2023/04/29 08:28:07;;;;;;;9.43;3.45;;;;;;;21.22;100.00;100214.47;7391532;19;20093;-79
2023/04/29 08:30:36;;;;;;;6.10;2.30;;;;;;;21.11;100.00;100210.50;7392137;19;20022;-80
2023/04/29 08:33:03;;;;;;;3.83;1.85;;;;;;;21.26;100.00;100212.84;7396241;19;20469;-80
2023/04/29 08:35:29;;;;;;;5.43;1.83;;;;;;;22.44;97.60;100219.31;7391927;19;20048;-80
2023/04/29 08:37:55;;;;;;;5.15;2.08;;;;;;;20.07;100.00;100216.34;7391184;19;20025;-80
2023/04/29 08:40:22;;;;;;;2.08;0.80;;;;;;;19.89;100.00;100210.66;7391685;19;20014;-80
2023/04/29 08:42:49;;;;;;;3.13;1.35;;;;;;;20.47;100.00;100208.91;7392702;19;20022;-80
2023/04/29 08:45:18;;;;;;;2.88;1.13;;;;;;;20.00;100.00;100214.13;7387751;19;20404;-80
2023/04/29 08:47:46;;;;;;;3.40;0.95;;;;;;;19.62;100.00;100224.53;7391803;19;20308;-80
2023/04/29 08:50:12;;;;;;;4.68;1.63;;;;;;;19.29;100.00;100216.38;7390619;19;20468;-80
2023/04/29 08:52:38;;;;;;;5.00;1.67;;;;;;;19.15;100.00;100223.16;7392825;19;20010;-80
2023/04/29 08:55:05;;;;;;;4.55;1.67;;;;;;;19.05;100.00;100219.16;7390665;19;20018;-80
2023/04/29 08:57:38;;;;;;;2.67;1.02;;;;;;;18.71;100.00;100227.06;7390551;19;20326;-81
2023/04/29 09:00:12;;;;;;;2.80;1.65;;;;;;;17.76;100.00;100233.66;7389596;19;20088;-80
2023/04/29 09:02:44;;;;;;;3.53;1.10;;;;;;;17.67;100.00;100233.91;7394037;19;20014;-80
2023/04/29 09:05:11;;;;;;;1.70;0.85;;;;;;;17.76;100.00;100231.56;7392017;19;20588;-80
2023/04/29 09:07:38;;;;;;;1.48;0.73;;;;;;;17.73;100.00;100238.25;7392825;19;20018;-80
2023/04/29 09:10:05;;;;;;;2.55;1.10;;;;;;;17.96;100.00;100225.63;7391430;19;20077;-80
2023/04/29 09:12:31;;;;;;;1.95;0.93;;;;;;;18.07;100.00;100233.28;7393306;19;20018;-81
2023/04/29 09:14:58;;;;;;;21.98;4.10;;;;;;;17.96;100.00;100228.47;7390184;19;20369;-80
2023/04/29 09:17:43;;;;;;;13.35;2.17;;;;;;;18.17;100.00;100218.38;7392314;19;20025;-80
2023/04/29 09:20:18;;;;;;;16.63;5.57;;;;;;;18.62;100.00;100235.09;7387587;19;20015;-80
2023/04/29 09:22:52;;;;;;;12.10;3.40;;;;;;;19.07;100.00;100241.97;7389224;19;20893;-81
2023/04/29 09:25:18;;;;;;;11.45;2.60;;;;;;;18.96;100.00;100236.41;7389663;19;20376;-80
2023/04/29 09:27:45;;;;;;;22.10;5.22;;;;;;;19.35;100.00;100228.41;7391811;19;20022;-80
2023/04/29 09:30:12;;;;;;;11.55;2.67;;;;;;;19.58;100.00;100235.38;7388489;19;20019;-80
2023/04/29 09:32:38;;;;;;;12.40;3.85;;;;;;;19.65;100.00;100239.69;7392239;19;20015;-80
2023/04/29 09:35:20;;;;;;;16.88;3.17;;;;;;;19.64;100.00;100244.56;7389323;19;20032;-80
2023/04/29 09:37:46;;;;;;;3.42;2.33;;;;;;;19.53;100.00;100241.09;7391654;19;20022;-80
2023/04/29 09:40:33;;;;;;;8.30;2.10;;;;;;;19.74;100.00;100236.50;7388529;19;20010;-80
2023/04/29 09:43:00;;;;;;;14.73;2.85;;;;;;;28.00;86.81;100231.84;7389157;19;20508;-80
2023/04/29 09:45:34;;;;;;;3.10;1.55;;;;;;;22.72;97.24;100235.03;7392965;19;20457;-80
2023/04/29 09:48:02;;;;;;;5.43;2.08;;;;;;;21.20;100.00;100234.88;7391508;19;20032;-80
2023/04/29 09:50:28;;;;;;;3.72;1.40;;;;;;;17.73;100.00;100243.91;7390348;19;20018;-80
2023/04/29 09:52:54;;;;;;;1.88;1.58;;;;;;;17.30;100.00;100237.00;7391151;19;20357;-80
2023/04/29 09:55:21;;;;;;;8.02;1.63;;;;;;;18.29;100.00;100240.88;7389883;19;20080;-80
2023/04/29 09:57:47;;;;;;;4.53;1.42;;;;;;;17.01;100.00;100234.69;7390446;19;20029;-79
2023/04/29 10:00:14;;;;;;;3.70;1.08;;;;;;;17.35;100.00;100233.41;7390274;19;20347;-80
2023/04/29 10:02:42;;;;;;;2.42;1.20;;;;;;;18.78;100.00;100234.22;7390752;19;20023;-80
2023/04/29 10:05:09;;;;;;;4.60;2.00;;;;;;;18.00;100.00;100237.41;7388145;19;20011;-81
2023/04/29 10:07:38;;;;;;;3.60;1.42;;;;;;;18.51;100.00;100240.81;7391014;19;20038;-80
2023/04/29 10:10:07;;;;;;;4.03;1.20;;;;;;;19.60;100.00;100232.78;7390071;19;20512;-80
2023/04/29 10:12:37;;;;;;;3.78;1.10;;;;;;;19.16;100.00;100244.47;7389870;19;20026;-80
2023/04/29 10:15:26;;;;;;;1.95;1.00;;;;;;;35.96;49.88;100217.97;7391513;19;20380;-80
2023/04/29 10:18:08;;;;;;;2.10;0.50;;;;;;;34.61;43.17;100222.16;7391968;19;20019;-80
2023/04/29 10:20:39;;;;;;;0.93;0.82;;;;;;;37.40;37.91;100212.00;7389044;19;20074;-80
2023/04/29 10:23:06;;;;;;;0.55;0.35;;;;;;;38.13;35.91;100215.97;7390482;19;20423;-80
2023/04/29 10:25:36;;;;;;;3.05;0.82;;;;;;;32.22;40.13;100225.19;7390278;19;20074;-80
2023/04/29 10:28:03;;;;;;;0.20;0.10;;;;;;;31.13;43.87;100223.34;7389270;19;20014;-81
2023/04/29 10:30:30;;;;;;;3.05;0.55;;;;;;;24.42;74.50;100236.78;7385843;19;20029;-80
2023/04/29 10:33:00;;;;;;;2.70;0.40;;;;;;;24.15;83.08;100235.53;7398012;19;20650;-80
2023/04/29 10:35:27;;;;;;;1.17;0.30;;;;;;;26.93;69.24;100231.16;7396799;19;20678;-80
2023/04/29 10:37:57;;;;;;;2.90;0.47;;;;;;;29.68;56.90;100229.72;7395428;19;20011;-80
2023/04/29 10:40:39;;;;;;;1.00;0.40;;;;;;;35.54;41.68;100220.13;7393625;19;20014;-80
2023/04/29 10:43:05;;;;;;;0.15;0.10;;;;;;;36.59;38.46;100219.00;7395725;19;20544;-80
2023/04/29 10:45:35;;;;;;;1.23;0.20;;;;;;;37.09;36.98;100218.53;7396448;19;20022;-80
2023/04/29 10:48:01;;;;;;;0.75;0.17;;;;;;;36.63;37.48;100225.75;7397170;19;20044;-80
2023/04/29 10:50:28;;;;;;;1.20;0.50;;;;;;;38.50;34.38;100227.75;7395771;19;20045;-81
2023/04/29 10:52:55;;;;;;;1.42;0.68;;;;;;;37.19;35.04;100227.72;7394928;19;20469;-81
2023/04/29 10:55:24;;;;;;;0.98;0.77;;;;;;;37.30;34.62;100226.78;7393951;19;20461;-80
2023/04/29 10:57:55;;;;;;;1.02;0.70;;;;;;;28.34;43.79;100246.94;7394252;19;20022;-80
2023/04/29 11:00:26;;;;;;;2.17;0.35;;;;;;;33.46;42.58;100238.34;7392950;19;20481;-81
2023/04/29 11:02:57;;;;;;;1.35;0.43;;;;;;;36.38;36.84;100231.75;7397764;19;20373;-81
2023/04/29 11:06:12;;;;;;;0.10;0.00;;;;;;;36.62;35.42;100224.28;7399954;19;20026;-92
2023/04/29 11:08:45;;;;;;;1.52;0.22;;;;;;;36.08;35.76;100218.63;7400882;19;20022;-89
2023/04/29 11:11:14;;;;;;;1.08;0.50;;;;;;;36.16;35.40;100225.56;7396321;19;20033;-91
2023/04/29 11:13:47;;;;;;;0.93;0.30;;;;;;;35.62;34.95;100226.38;7403066;19;20031;-90
2023/04/29 11:16:14;;;;;;;0.68;0.10;;;;;;;32.60;40.28;100225.63;7401605;19;20070;-89
2023/04/29 11:19:08;;;;;;;0.20;0.10;;;;;;;35.08;36.28;100234.97;7404456;19;20018;-90
2023/04/29 11:21:36;;;;;;;0.20;0.20;;;;;;;34.03;36.52;100226.00;7403647;19;20011;-90
2023/04/29 11:24:05;;;;;;;0.52;0.30;;;;;;;23.68;59.15;100245.03;7405816;19;20021;-91
2023/04/29 11:26:34;;;;;;;1.48;0.40;;;;;;;22.27;90.09;100247.31;7404795;19;20015;-78
2023/04/29 11:29:01;;;;;;;2.38;0.45;;;;;;;21.57;99.44;100240.38;7396472;19;20023;-80
2023/04/29 11:31:32;;;;;;;1.05;0.47;;;;;;;21.83;98.54;100242.50;7395599;19;20078;-80
2023/04/29 11:33:59;;;;;;;4.28;0.47;;;;;;;21.37;100.00;100245.91;7399404;19;20022;-81